Date,TemperatureHighF,TemperatureAvgF,TemperatureLowF,DewpointHighF,DewpointAvgF,DewpointLowF,HumidityHigh,HumidityAvg,HumidityLow,PressureMaxIn,PressureMinIn,WindSpeedMaxMPH,WindSpeedAvgMPH,GustSpeedMaxMPH,PrecipitationSumIn
2013-1-1,48,46,42,47,40,29,96,80,52,30.14,29.93,1,0,4,0.00
2013-1-2,47,43,38,46,40,37,100,90,73,30.21,29.95,2,0,4,0.00
2013-1-3,42,37,29,38,35,27,95,91,79,30.30,30.17,0,0,3,0.00
2013-1-4,48,36,26,28,25,22,96,68,38,30.36,30.23,2,0,5,0.05
2013-1-5,49,37,27,32,26,22,84,64,39,30.42,30.27,2,0,6,0.08
2013-1-6,52,43,38,39,36,30,90,75,57,30.27,30.08,1,0,2,0.00
2013-1-7,50,39,31,34,31,28,91,73,49,30.46,30.21,2,0,6,0.03
2013-1-8,55,40,28,43,35,26,95,81,58,30.51,30.41,1,0,1,0.15
2013-1-9,65,50,34,55,44,33,96,83,67,30.48,30.38,2,0,4,0.00
2013-1-10,61,53,45,50,43,36,94,71,43,30.56,30.44,3,0,6,0.00
2013-1-11,48,44,40,46,41,36,100,90,62,30.45,30.18,1,0,4,0.00
2013-1-12,70,58,46,64,56,46,98,94,79,30.19,30.11,1,0,3,0.00
2013-1-13,73,63,54,62,59,53,98,87,67,30.14,30.05,2,0,7,0.00
2013-1-14,64,62,51,62,59,50,97,92,85,30.17,30.08,3,0,6,0.00
2013-1-15,51,43,41,49,42,40,98,96,94,30.26,30.11,4,1,12,0.00
2013-1-16,49,44,39,49,43,38,98,98,97,30.10,29.99,1,0,4,0.00
2013-1-17,50,44,33,49,44,32,98,97,93,30.18,29.93,6,1,15,0.00
2013-1-18,42,34,27,34,30,25,97,86,57,30.57,30.18,1,0,4,0.01
2013-1-19,52,37,26,33,28,24,95,73,41,30.54,30.18,2,0,5,0.02
2013-1-20,59,47,38,37,32,29,75,58,39,30.18,30.01,3,1,6,0.00
2013-1-21,58,43,29,34,28,19,95,60,33,30.11,29.88,3,0,6,0.03
2013-1-22,41,31,23,20,8,-3,64,38,20,30.31,29.98,3,1,6,0.01
2013-1-23,40,28,16,18,12,5,79,54,34,30.42,30.09,3,0,4,0.36
2013-1-24,36,30,22,26,13,4,72,50,30,30.55,30.00,4,1,10,0.05
2013-1-25,25,22,18,23,13,4,92,68,47,30.56,30.19,1,0,4,0.00
2013-1-26,36,32,26,34,30,25,95,92,87,30.45,30.25,0,0,2,0.19
2013-1-27,39,30,22,28,25,20,95,80,59,30.64,30.44,3,0,5,0.11
2013-1-28,51,42,30,47,36,27,93,81,58,30.53,30.25,3,0,7,0.15
2013-1-29,72,59,48,57,52,46,93,79,55,30.26,30.06,3,1,10,0.02
2013-1-30,72,66,60,64,61,57,93,84,74,30.07,29.37,8,4,18,0.00
2013-1-31,60,45,33,57,30,21,92,59,37,30.02,29.43,5,2,13,0.00
2013-2-1,40,33,24,30,14,4,77,48,30,30.42,29.88,7,2,14,0.14
2013-2-2,42,31,17,35,14,8,87,52,31,30.43,30.07,3,0,6,0.10
2013-2-3,48,39,31,35,29,23,95,71,45,30.07,29.87,3,1,7,0.11
2013-2-4,48,37,25,28,23,19,87,60,37,30.18,30.02,2,0,9,0.05
2013-2-5,58,46,38,35,32,28,79,60,39,30.03,29.91,2,0,7,0.00
2013-2-6,58,45,33,36,29,24,90,60,27,30.31,29.99,2,0,5,0.00
2013-2-7,45,40,35,41,35,27,100,83,64,30.37,30.05,3,1,6,0.00
2013-2-8,53,44,36,46,38,30,96,83,57,30.08,29.85,4,1,7,0.00
2013-2-9,50,38,28,30,24,18,84,58,29,30.39,30.07,2,0,7,0.02
2013-2-10,51,39,26,38,23,19,89,58,32,30.53,30.23,2,0,7,0.03
2013-2-11,60,54,42,58,52,38,97,93,86,30.24,29.93,3,1,8,0.00
2013-2-12,59,51,42,52,35,28,92,56,30,30.10,29.93,2,0,5,0.00
2013-2-13,49,44,40,46,42,33,100,90,54,29.98,29.65,2,0,3,0.00
2013-2-14,50,40,30,35,32,28,95,74,47,30.10,29.85,2,0,5,0.01
2013-2-15,61,46,32,40,33,28,95,66,30,30.12,29.95,2,0,5,0.00
2013-2-16,43,34,28,35,32,25,96,89,70,30.00,29.86,1,0,5,0.00
2013-2-17,35,28,22,25,16,9,90,64,35,30.32,29.95,4,0,7,0.11
2013-2-18,52,34,16,26,18,12,88,57,31,30.45,30.27,2,0,6,0.03
2013-2-19,48,41,34,46,36,26,99,83,58,30.27,29.88,4,1,8,0.00
2013-2-20,50,40,30,36,20,13,93,46,24,30.17,29.99,4,1,7,0.05
2013-2-21,52,39,28,25,19,16,72,46,26,30.29,30.14,2,0,9,0.06
2013-2-22,41,35,32,34,30,21,96,85,45,30.38,30.17,3,0,3,0.00
2013-2-23,42,38,35,41,38,34,100,96,95,30.17,29.85,1,0,4,0.00
2013-2-24,61,48,39,44,36,26,98,67,30,30.06,29.82,4,0,6,0.00
2013-2-25,41,36,32,28,24,22,76,62,49,30.25,30.06,4,1,8,0.00
2013-2-26,53,42,33,52,39,25,97,88,66,30.19,29.59,8,2,12,0.00
2013-2-27,58,47,40,42,39,36,97,76,44,29.80,29.64,3,1,10,0.00
2013-2-28,48,42,34,40,32,27,94,70,47,29.88,29.71,3,0,6,0.00
2013-3-1,46,40,32,32,29,27,84,65,50,29.94,29.86,3,0,5,0.00
2013-3-2,45,38,30,30,26,20,86,63,47,29.95,29.84,2,0,4,0.00
2013-3-3,44,35,28,23,20,18,76,56,39,30.01,29.87,3,1,10,0.02
2013-3-4,50,36,24,25,17,14,77,49,24,30.15,30.00,4,1,8,0.02
2013-3-5,48,41,34,42,34,18,96,78,44,30.11,29.59,5,0,5,0.00
2013-3-6,46,40,35,41,32,28,96,75,55,30.07,29.55,7,2,15,0.00
2013-3-7,49,41,32,32,29,26,89,63,49,30.27,30.06,4,1,9,0.00
2013-3-8,54,42,31,29,26,24,81,55,33,30.33,30.19,5,1,8,0.02
2013-3-9,62,46,31,32,28,26,81,54,27,30.38,30.27,3,0,5,0.01
2013-3-10,67,49,31,34,29,25,88,51,23,30.35,30.22,2,0,8,0.00
2013-3-11,67,55,40,54,42,23,84,63,34,30.26,29.94,3,1,11,0.00
2013-3-12,66,59,48,60,51,32,95,77,48,29.97,29.75,5,1,12,0.00
2013-3-13,54,44,32,34,28,18,92,55,32,30.16,29.96,4,1,10,0.00
2013-3-14,52,40,30,23,19,16,63,45,25,30.27,30.14,4,1,7,0.02
2013-3-15,62,46,28,36,28,19,81,51,34,30.21,29.92,4,1,8,0.02
2013-3-16,77,61,47,57,45,36,81,60,36,29.92,29.65,4,1,11,0.00
2013-3-17,60,49,39,53,44,37,94,84,69,30.20,29.84,5,2,12,0.00
2013-3-18,40,38,36,39,37,35,100,95,93,30.23,29.88,3,1,6,0.00
2013-3-19,65,50,38,45,31,9,97,60,18,30.05,29.85,5,1,9,0.00
2013-3-20,56,46,38,27,16,9,64,31,19,30.12,29.82,3,0,7,0.00
2013-3-21,44,38,30,33,19,12,73,48,31,30.01,29.76,4,1,8,0.00
2013-3-22,50,36,22,23,16,12,75,46,23,30.11,30.00,3,0,10,0.02
2013-3-23,55,44,34,33,26,19,71,52,30,30.09,29.93,1,0,4,0.00
2013-3-24,40,37,35,37,34,29,95,88,71,29.95,29.59,4,1,12,0.00
2013-3-25,46,39,33,34,29,24,100,71,45,29.84,29.59,6,1,13,0.00
2013-3-26,48,41,32,30,27,25,79,60,45,30.14,29.84,3,1,5,0.00
2013-3-27,50,40,31,28,25,21,81,57,33,30.26,30.14,5,1,16,0.01
2013-3-28,55,42,30,29,25,24,79,54,31,30.32,30.18,4,1,7,0.00
2013-3-29,59,44,28,31,27,24,88,55,27,30.36,30.20,3,0,6,0.01
2013-3-30,67,52,38,43,33,27,83,52,27,30.27,30.10,3,0,7,0.00
2013-3-31,67,56,47,56,50,43,96,83,65,30.11,29.81,4,0,7,0.00
2013-4-1,71,58,48,53,46,36,97,69,34,30.00,29.82,4,1,10,0.00
2013-4-2,59,47,33,35,28,20,89,52,22,30.18,30.00,4,1,10,0.00
2013-4-3,58,47,33,32,23,17,75,41,20,30.33,30.17,2,0,7,0.00
2013-4-4,48,41,37,39,30,19,95,67,36,30.40,29.97,5,2,11,0.00
2013-4-5,65,48,37,48,40,36,97,76,40,30.05,29.91,2,0,5,0.00
2013-4-6,64,52,42,38,31,22,82,48,26,30.29,30.05,5,1,8,0.00
2013-4-7,72,57,37,44,40,33,89,56,34,30.29,30.12,3,1,8,0.00
2013-4-8,78,66,53,57,52,44,92,64,40,30.17,30.05,3,1,8,0.00
2013-4-9,86,72,56,59,56,53,93,62,35,30.18,30.05,3,0,8,0.00
2013-4-10,88,74,60,63,59,56,87,61,36,30.09,29.93,3,0,7,0.00
2013-4-11,80,71,62,66,61,57,90,70,50,29.98,29.78,3,1,9,0.00
2013-4-12,83,72,63,68,61,43,95,71,45,29.79,29.59,4,1,14,0.00
2013-4-13,74,62,49,46,42,37,73,49,28,30.02,29.77,2,0,5,0.00
2013-4-14,80,64,43,53,42,36,91,51,21,30.12,30.01,2,0,7,0.00
2013-4-15,71,63,55,58,56,53,94,79,59,30.22,30.02,4,1,10,0.00
2013-4-16,77,66,59,61,59,57,93,79,54,30.31,30.20,1,0,4,0.00
2013-4-17,80,68,58,66,61,56,96,80,59,30.23,30.12,2,0,3,0.00
2013-4-18,79,70,61,64,60,57,91,73,50,30.19,30.03,3,0,9,0.00
2013-4-19,79,69,64,70,64,62,95,85,68,30.04,29.70,5,1,9,0.00
2013-4-20,64,54,42,61,39,31,93,60,30,30.29,29.81,4,0,7,0.00
2013-4-21,61,49,38,41,37,33,94,66,42,30.52,30.29,5,1,9,0.00
2013-4-22,62,49,36,43,37,30,92,66,40,30.51,30.30,5,1,14,0.00
2013-4-23,69,54,45,53,47,43,93,78,51,30.32,30.14,2,0,6,0.05
2013-4-24,75,62,49,58,54,47,97,76,53,30.16,29.98,4,1,9,0.01
2013-4-25,70,59,46,57,44,38,90,61,32,30.29,30.01,2,0,8,0.00
2013-4-26,72,56,39,48,40,34,94,63,26,30.45,30.29,3,0,8,0.00
2013-4-27,74,61,51,55,47,40,91,61,35,30.39,30.27,2,0,7,0.01
2013-4-28,57,55,53,54,52,48,96,91,74,30.27,30.10,1,0,3,0.58
2013-4-29,72,61,54,63,58,53,98,91,69,30.10,29.98,1,0,4,0.35
2013-4-30,65,59,53,59,56,51,97,91,78,30.20,30.02,2,0,6,0.01
2013-5-1,61,58,55,59,56,54,97,92,88,30.35,30.19,3,1,7,0.01
2013-5-2,60,56,51,57,54,50,96,91,86,30.35,30.29,2,0,8,0.00
2013-5-3,67,56,46,55,49,44,97,79,50,30.30,30.20,3,1,8,0.00
2013-5-4,59,53,48,52,48,44,90,83,72,30.24,30.11,4,1,11,0.00
2013-5-5,57,53,47,54,50,45,94,89,83,30.13,30.01,3,2,13,0.03
2013-5-6,62,58,55,60,57,53,97,96,93,30.03,29.85,3,1,11,1.25
2013-5-7,71,60,53,59,54,48,98,83,48,29.95,29.87,1,0,5,0.06
2013-5-8,69,60,52,62,56,51,97,88,69,30.02,29.93,1,0,5,0.02
2013-5-9,82,65,50,62,57,49,98,78,44,30.07,29.99,1,0,5,0.01
2013-5-10,86,71,56,64,60,54,96,71,42,30.07,29.94,2,0,6,0.00
2013-5-11,82,72,65,68,63,60,95,75,52,29.95,29.78,2,0,6,0.10
2013-5-12,72,63,50,63,50,38,96,67,34,30.04,29.80,2,0,11,0.03
2013-5-13,66,54,40,44,38,32,95,61,32,30.21,30.04,2,0,7,0.00
2013-5-14,71,55,36,47,40,35,96,61,30,30.28,30.08,1,0,5,0.00
2013-5-15,89,70,53,65,56,44,78,62,42,30.09,29.89,1,0,4,0.00
2013-5-16,86,74,62,66,62,59,93,69,44,29.98,29.90,1,0,4,0.00
2013-5-17,89,74,61,68,63,59,96,72,40,30.08,29.98,1,0,3,0.00
2013-5-18,76,68,61,69,64,58,96,87,74,30.16,30.07,2,0,2,0.96
2013-5-19,78,68,63,70,66,62,98,94,75,30.16,30.06,1,0,2,0.95
2013-5-20,80,70,67,71,67,66,98,93,73,30.12,30.03,1,0,4,0.30
2013-5-21,88,74,67,75,69,66,97,86,59,30.06,29.94,1,0,6,0.00
2013-5-22,85,75,68,72,68,66,95,81,58,30.02,29.90,1,0,10,0.00
2013-5-23,80,71,65,70,67,63,98,87,67,29.97,29.81,0,0,3,0.54
2013-5-24,68,63,51,63,53,39,97,72,41,30.20,29.83,4,1,12,0.02
2013-5-25,75,57,42,52,42,33,95,63,27,30.29,30.15,2,0,8,0.00
2013-5-26,75,59,44,57,47,42,96,69,31,30.30,30.19,1,0,5,0.00
2013-5-27,81,65,49,60,54,47,97,71,40,30.30,30.16,1,0,5,0.00
2013-5-28,86,73,60,69,63,54,95,74,53,30.25,30.14,1,0,11,0.00
2013-5-29,87,74,61,68,64,60,96,74,48,30.24,30.16,1,0,7,0.00
2013-5-30,88,74,62,70,65,60,97,75,45,30.27,30.18,1,0,5,0.00
2013-5-31,88,75,64,72,66,62,97,76,48,30.22,30.10,1,0,4,0.00
2013-6-1,89,77,66,70,67,63,96,73,43,30.13,30.02,1,0,4,0.00
2013-6-2,86,76,67,72,68,64,94,77,55,30.04,29.91,1,0,8,0.14
2013-6-3,83,72,65,73,69,64,97,91,66,29.95,29.83,2,0,7,0.71
2013-6-4,77,68,63,67,64,62,98,88,66,30.11,29.95,1,0,5,0.01
2013-6-5,82,70,60,67,63,59,97,79,53,30.15,30.02,1,0,4,0.00
2013-6-6,73,70,64,71,66,59,97,89,72,30.05,29.81,1,0,5,0.24
2013-6-7,71,69,67,70,68,66,98,97,96,29.85,29.55,2,0,5,1.62
2013-6-8,85,72,62,71,67,61,98,86,55,30.10,29.82,1,0,5,0.07
2013-6-9,90,76,64,74,69,63,98,82,55,30.17,30.06,0,0,6,0.03
2013-6-10,83,73,70,76,71,69,97,94,79,30.10,29.88,1,0,8,0.59
2013-6-11,85,75,67,71,68,65,97,81,54,29.96,29.90,1,0,7,0.00
2013-6-12,91,77,62,77,70,61,98,82,58,29.98,29.86,1,0,4,0.00
2013-6-13,95,79,67,76,71,64,96,81,48,29.87,29.58,6,0,9,0.25
2013-6-14,78,69,58,66,60,57,97,77,52,30.02,29.73,2,0,5,0.00
2013-6-15,85,71,57,67,62,57,98,76,45,30.14,30.03,1,0,6,0.00
2013-6-16,88,75,63,72,67,61,93,77,56,30.12,30.00,1,0,9,0.00
2013-6-17,85,76,70,75,70,66,90,82,68,30.03,29.92,0,0,2,0.00
2013-6-18,84,73,68,75,70,67,97,91,74,29.97,29.76,1,0,6,0.38
2013-6-19,80,71,63,70,66,62,98,86,69,30.13,29.89,1,0,5,0.01
2013-6-20,83,71,63,67,64,59,97,78,52,30.25,30.13,1,0,6,0.00
2013-6-21,83,70,56,64,58,53,95,70,36,30.28,30.21,2,0,6,0.00
2013-6-22,83,72,65,72,68,63,96,90,70,30.23,30.13,1,0,5,0.11
2013-6-23,88,76,67,75,71,66,98,85,57,30.22,30.12,1,0,3,0.00
2013-6-24,89,77,69,76,72,68,97,86,62,30.21,30.09,1,0,6,0.00
2013-6-25,91,77,69,78,72,67,97,84,60,30.12,30.00,0,0,5,0.01
2013-6-26,92,79,69,77,72,67,97,81,57,30.03,29.88,2,0,5,0.18
2013-6-27,89,78,67,77,72,66,98,84,60,29.93,29.71,1,0,2,0.00
2013-6-28,92,78,71,77,72,68,97,84,55,29.75,29.56,4,0,5,0.71
2013-6-29,87,76,69,75,72,68,98,86,64,29.72,29.59,1,0,4,0.17
2013-6-30,88,74,69,77,71,68,97,90,63,29.86,29.71,0,0,2,0.35
2013-7-1,83,75,69,75,71,68,98,90,72,30.00,29.85,1,0,6,0.65
2013-7-2,76,73,71,74,72,70,97,95,91,30.19,29.99,1,0,5,0.52
2013-7-3,88,76,72,77,73,71,98,92,68,30.24,30.15,0,0,4,0.39
2013-7-4,86,77,72,78,74,71,97,90,66,30.28,30.18,1,0,7,0.63
2013-7-5,89,79,71,77,74,70,97,84,62,30.28,30.16,1,0,4,0.00
2013-7-6,89,78,72,76,73,71,97,84,62,30.25,30.12,0,0,2,0.00
2013-7-7,88,77,69,78,73,68,97,86,69,30.19,30.06,1,0,4,0.43
2013-7-8,90,77,69,78,73,68,98,87,59,30.18,30.09,0,0,1,1.20
2013-7-9,88,77,72,79,74,70,97,91,71,30.16,30.06,0,0,1,0.19
2013-7-10,88,78,72,78,74,70,97,86,68,30.10,29.94,2,0,5,0.96
2013-7-11,77,74,72,75,73,71,98,96,92,29.97,29.88,1,0,5,0.92
2013-7-12,74,71,68,71,69,68,98,95,87,30.04,29.88,1,0,5,0.04
2013-7-13,76,72,68,75,71,68,98,96,93,30.19,30.02,1,0,5,0.21
2013-7-14,89,78,71,76,73,70,97,85,60,30.31,30.19,1,0,5,0.00
2013-7-15,90,78,68,76,72,67,98,82,54,30.33,30.25,1,0,4,0.00
2013-7-16,96,81,68,80,74,67,98,81,52,30.28,30.18,0,0,1,0.00
2013-7-17,93,86,73,79,76,72,96,73,53,30.23,30.11,1,0,4,0.00
2013-7-18,96,82,72,81,75,70,97,81,51,30.15,30.03,0,0,0,0.00
2013-7-19,92,81,72,79,75,71,97,83,61,30.09,29.98,1,0,6,0.00
2013-7-20,89,79,73,79,74,71,94,86,69,30.01,29.91,1,0,5,0.00
2013-7-21,91,78,73,79,74,71,97,88,65,29.98,29.90,0,0,3,0.03
2013-7-22,88,76,70,77,73,70,98,90,67,29.95,29.82,0,0,1,0.01
2013-7-23,90,80,73,77,73,71,95,83,59,29.84,29.72,1,0,4,0.00
2013-7-24,93,79,68,76,72,67,98,79,47,29.85,29.73,1,0,4,0.00
2013-7-25,80,72,65,70,67,64,97,87,71,30.05,29.84,2,0,5,1.56
2013-7-26,84,72,62,72,66,60,98,82,59,30.13,30.03,0,0,1,0.00
2013-7-27,83,72,66,74,68,65,98,90,64,30.06,29.94,1,0,1,0.64
2013-7-28,87,76,68,76,71,67,98,87,62,30.00,29.92,0,0,4,0.00
2013-7-29,86,74,65,71,66,62,97,80,47,30.17,29.99,1,0,5,0.12
2013-7-30,87,72,59,74,65,58,98,81,50,30.24,30.15,0,0,3,0.00
2013-7-31,84,75,69,75,71,68,97,88,68,30.16,30.00,1,0,1,0.52
2013-8-1,86,76,70,76,72,66,97,89,66,30.01,29.86,2,0,3,0.11
2013-8-2,88,75,66,75,69,65,98,83,54,30.03,29.91,0,0,0,0.30
2013-8-3,88,74,69,79,72,68,98,93,70,30.02,29.92,1,0,4,1.23
2013-8-4,84,76,65,70,67,63,97,77,51,30.04,29.95,1,0,5,0.01
2013-8-5,82,71,62,71,65,61,98,82,56,30.11,30.01,1,0,1,0.00
2013-8-6,82,75,67,73,69,65,95,82,69,30.07,30.02,1,0,3,0.32
2013-8-7,86,76,67,74,70,65,97,84,62,30.10,30.03,1,0,2,0.00
2013-8-8,73,73,73,71,71,71,92,92,92,30.05,30.05,0,0,0,0.00
2013-8-9,74,74,74,72,72,71,95,94,93,30.05,30.01,0,0,0,0.01
2013-8-10,92,77,71,81,74,69,97,91,65,30.09,30.02,3,0,6,2.30
2013-8-11,92,84,72,79,76,71,97,79,56,30.11,30.02,0,0,1,0.23
2013-8-12,92,78,70,78,73,69,98,88,55,30.06,29.94,2,0,2,0.35
2013-8-13,88,76,70,78,73,69,98,91,69,29.99,29.78,0,0,0,0.28
2013-8-14,76,69,61,71,65,59,97,88,65,30.10,29.83,1,0,5,0.00
2013-8-15,76,64,57,64,58,56,97,84,53,30.19,30.10,2,0,6,0.00
2013-8-16,70,65,56,64,61,56,98,85,72,30.21,30.14,1,0,1,0.01
2013-8-17,59,59,59,58,58,58,95,95,95,30.19,30.19,0,0,0,0.00
2013-8-19,75,72,67,72,69,66,96,92,86,30.15,30.11,0,0,0,0.58
2013-8-20,81,73,64,74,69,63,98,89,72,30.20,30.12,0,0,1,0.00
2013-8-21,86,74,71,78,72,69,98,93,72,30.23,30.15,0,0,4,2.06
2013-8-22,90,85,73,74,73,71,95,69,55,30.09,30.00,0,0,0,0.00
2013-8-23,88,75,67,76,70,64,97,86,61,30.09,29.94,2,0,5,0.00
2013-8-24,81,70,62,66,63,60,95,80,52,30.32,30.12,2,0,6,0.00
2013-8-25,79,68,58,65,61,57,98,80,48,30.41,30.30,1,0,5,0.00
2013-8-26,83,74,53,67,62,52,96,69,43,30.34,30.13,0,0,1,0.01
2013-8-27,90,73,61,77,67,59,95,85,54,30.14,29.97,1,0,4,0.00
2013-8-28,80,75,69,76,72,68,97,93,84,30.00,29.87,0,0,0,0.01
2013-8-29,86,77,70,75,72,68,96,86,65,30.02,29.85,2,0,6,0.00
2013-8-30,88,75,67,73,69,65,96,82,52,30.08,29.95,0,0,3,0.00
2013-8-31,89,76,67,76,71,65,97,85,63,29.97,29.86,1,0,4,0.35
2013-9-1,89,76,69,80,72,68,97,89,69,29.90,29.79,1,0,5,0.45
2013-9-2,88,76,68,77,72,67,98,88,63,29.89,29.80,0,0,1,0.01
2013-9-3,88,76,70,79,72,68,97,88,62,29.95,29.80,0,0,1,0.07
2013-9-4,72,72,72,70,70,70,94,94,94,29.95,29.95,0,0,0,0.00
2013-9-5,86,72,66,70,67,64,95,84,48,30.10,30.04,0,0,0,0.01
2013-9-6,80,70,60,65,62,57,95,76,52,30.20,30.10,1,0,6,0.00
2013-9-7,82,65,56,69,61,55,97,90,63,30.15,29.99,0,0,1,0.00
2013-9-8,88,72,62,72,65,60,97,80,48,30.00,29.92,1,0,1,0.01
2013-9-9,88,74,64,73,68,63,97,84,55,30.16,30.00,1,0,2,0.00
2013-9-10,90,74,67,75,70,66,97,86,55,30.24,30.14,0,0,3,0.00
2013-9-11,91,76,66,75,70,64,96,82,55,30.20,30.07,0,0,6,0.01
2013-9-12,90,75,67,76,70,65,95,85,60,30.07,29.81,0,0,1,0.02
2013-9-13,84,74,67,68,65,58,94,77,47,29.82,29.76,1,0,6,0.00
2013-9-14,75,67,55,61,55,50,93,69,48,30.16,30.05,1,0,3,0.00
2013-9-15,80,64,50,66,57,48,97,81,53,30.26,30.14,0,0,2,0.00
2013-9-16,84,72,62,70,65,60,96,81,51,30.21,30.06,1,0,5,0.00
2013-9-17,75,64,55,60,56,52,94,77,48,30.34,30.21,2,0,9,0.00
2013-9-18,73,58,48,58,52,47,96,80,42,30.34,30.20,1,0,2,0.00
2013-9-19,76,63,53,66,59,51,96,85,58,30.22,30.10,0,0,2,0.00
2013-9-20,70,66,62,67,64,61,96,93,89,30.10,29.98,0,0,0,0.25
2013-9-21,76,68,63,71,66,62,96,93,83,29.98,29.74,1,0,2,0.46
2013-9-22,75,66,57,63,60,55,97,84,58,29.91,29.72,2,0,7,0.13
2013-9-23,72,61,52,60,54,50,96,80,54,30.09,29.92,1,0,6,0.00
2013-9-24,77,62,53,63,57,51,96,84,56,30.12,29.97,0,0,1,0.00
2013-9-25,72,62,52,65,58,51,98,90,65,29.98,29.89,0,0,0,0.01
2013-9-26,74,64,56,61,58,54,97,84,52,30.06,29.91,2,0,6,0.00
2013-9-27,73,60,51,61,55,50,97,85,57,30.22,30.06,1,0,7,0.01
2013-9-28,69,59,50,58,54,49,97,85,61,30.29,30.20,3,0,7,0.01
2013-9-29,73,59,51,59,54,49,97,84,52,30.20,30.06,1,0,5,0.01
2013-9-30,76,60,50,63,55,48,97,86,52,30.12,30.02,0,0,0,0.00
2013-10-1,82,66,52,68,59,51,97,82,50,30.14,30.04,0,0,1,0.01
2013-10-2,83,67,56,67,60,54,97,81,47,30.15,30.06,1,0,4,0.00
2013-10-3,86,69,58,68,62,57,97,82,45,30.14,30.06,0,0,2,0.00
2013-10-4,86,71,61,70,65,59,97,82,52,30.14,30.06,0,0,2,0.01
2013-10-5,89,72,61,71,66,60,97,82,49,30.13,30.03,0,0,1,0.00
2013-10-6,84,72,62,70,66,60,97,84,60,30.07,29.93,1,0,5,0.00
2013-10-7,73,69,62,70,67,55,97,92,78,30.02,29.84,1,0,6,1.50
2013-10-8,64,59,56,55,51,48,84,74,64,30.24,30.02,4,1,13,0.00
2013-10-9,65,58,54,57,53,50,94,83,73,30.22,30.13,4,1,15,0.08
2013-10-10,60,56,52,59,55,51,96,95,94,30.13,29.97,2,1,8,0.58
2013-10-11,68,62,58,64,59,56,95,91,82,29.99,29.93,1,0,6,0.00
2013-10-12,67,63,60,64,61,59,95,94,92,30.10,29.98,1,0,2,0.03
2013-10-13,65,62,60,62,60,59,96,95,92,30.24,30.10,2,0,7,0.09
2013-10-14,63,60,56,60,59,54,97,95,89,30.27,30.20,2,0,7,0.03
2013-10-15,72,61,52,61,56,50,97,85,61,30.23,30.08,2,0,4,0.01
2013-10-16,72,64,61,64,61,59,95,89,74,30.09,29.96,1,0,1,0.00
2013-10-17,71,65,60,66,62,58,97,92,78,29.98,29.84,1,0,1,0.03
2013-10-18,70,60,52,64,53,47,96,79,50,30.06,29.89,2,0,4,0.00
2013-10-19,66,58,53,63,57,52,96,94,90,30.00,29.83,0,0,0,0.02
2013-10-20,63,52,42,56,45,40,96,78,45,30.15,29.92,2,0,8,0.01
2013-10-21,68,51,37,53,45,36,98,82,48,30.19,30.03,0,0,1,0.01
2013-10-22,68,59,51,59,54,49,95,86,60,30.03,29.82,1,0,4,0.00
2013-10-23,64,56,45,57,48,36,96,78,46,30.01,29.70,2,0,5,0.17
2013-10-24,57,45,34,41,36,32,95,72,44,30.21,30.02,2,0,8,0.00
2013-10-25,54,44,34,37,34,29,93,70,39,30.40,30.21,2,0,7,0.00
2013-10-26,58,43,28,39,32,27,96,70,37,30.40,30.09,1,0,4,0.00
2013-10-27,66,52,42,48,41,38,92,69,40,30.15,30.07,1,0,6,0.00
2013-10-28,70,55,44,55,48,42,96,82,53,30.28,30.14,1,0,1,0.00
2013-10-29,71,58,52,58,53,50,95,85,59,30.35,30.26,1,0,3,0.00
2013-10-30,74,60,52,61,56,51,97,87,61,30.31,30.17,1,0,5,0.00
2013-10-31,73,64,57,63,58,55,93,83,67,30.20,29.91,1,0,7,0.00
2013-11-1,70,67,60,66,64,59,95,91,81,29.91,29.66,2,0,10,0.30
2013-11-2,68,59,51,58,51,39,97,76,42,29.96,29.70,2,0,4,0.01
2013-11-3,62,50,40,42,39,37,92,69,41,30.40,29.96,3,0,7,0.00
2013-11-4,53,43,35,36,34,31,92,71,43,30.60,30.40,2,0,6,0.00
2013-11-5,57,46,35,49,40,32,90,80,67,30.60,30.47,1,0,5,0.00
2013-11-6,71,55,43,56,49,41,95,82,57,30.47,30.13,1,0,5,0.00
2013-11-7,67,58,42,60,51,34,96,80,52,30.14,29.95,2,0,5,0.00
2013-11-8,55,43,32,35,30,25,90,64,33,30.36,30.12,2,0,6,0.00
2013-11-9,57,42,28,37,31,26,95,68,36,30.41,30.21,1,0,5,0.00
2013-11-10,69,53,38,42,36,28,88,56,30,30.27,30.08,3,0,9,0.00
2013-11-11,60,45,32,35,31,28,88,60,32,30.37,30.16,1,0,5,0.00
2013-11-12,57,42,32,39,33,19,91,70,47,30.47,30.06,4,0,7,0.02
2013-11-13,43,33,26,22,20,17,83,60,36,30.58,30.46,3,0,14,0.00
2013-11-14,58,40,25,26,24,21,88,57,25,30.51,30.36,2,0,7,0.00
2013-11-15,61,47,30,48,36,24,89,68,43,30.38,30.24,1,0,2,0.01
2013-11-16,60,54,49,56,52,47,96,93,87,30.30,30.23,1,0,2,0.03
2013-11-17,66,60,54,63,57,53,97,93,83,30.25,29.89,2,0,7,0.03
2013-11-18,71,63,52,65,51,30,96,69,37,29.99,29.81,2,0,6,0.10
2013-11-19,53,46,39,34,30,28,72,54,38,30.34,29.98,3,0,6,0.00
2013-11-20,50,44,38,36,33,30,89,67,49,30.49,30.34,2,0,6,0.00
2013-11-21,56,47,37,46,41,34,92,80,67,30.55,30.42,1,0,3,0.00
2013-11-22,67,57,46,60,52,43,91,84,75,30.42,30.09,1,0,6,0.00
2013-11-23,61,54,42,58,42,22,94,67,38,30.19,30.05,2,0,7,0.01
2013-11-24,41,31,25,25,11,3,66,44,26,30.59,30.20,4,1,7,0.00
2013-11-25,41,31,18,17,12,7,81,48,25,30.63,30.42,1,0,5,0.00
2013-11-26,62,40,33,61,34,14,100,80,40,30.42,29.64,4,1,8,1.01
2013-11-27,45,38,29,44,34,18,99,86,63,30.19,29.53,5,1,10,0.56
2013-11-28,41,30,22,24,20,17,86,68,43,30.52,30.20,1,0,4,0.00
2013-11-29,47,35,24,28,25,22,93,69,42,30.68,30.51,2,0,6,0.00
2013-11-30,44,34,25,32,27,22,92,76,60,30.69,30.42,2,0,5,0.00
2013-12-1,56,38,25,36,29,24,95,75,40,30.41,30.07,1,0,3,0.00
2013-12-2,59,44,30,40,35,29,96,75,46,30.06,29.85,1,0,2,0.00
2013-12-3,56,46,34,48,41,32,96,85,68,30.02,29.90,1,0,4,0.02
2013-12-4,62,54,49,58,52,47,97,93,86,30.11,30.00,0,0,0,0.05
2013-12-5,66,61,56,63,60,54,97,95,88,30.13,30.03,2,0,7,0.11
2013-12-6,75,69,64,65,64,62,96,83,67,30.07,29.96,6,1,12,0.00
2013-12-7,68,47,41,65,43,34,95,87,75,30.49,29.98,4,1,11,0.66
2013-12-8,41,34,32,34,31,27,96,88,68,30.50,30.32,3,1,7,0.17
2013-12-9,44,39,33,43,38,32,97,97,96,30.33,30.09,0,0,4,0.36
2013-12-10,46,41,28,44,38,26,97,91,67,30.35,29.96,1,0,5,0.54
2013-12-11,47,34,25,29,25,22,94,73,40,30.49,30.32,1,0,4,0.01
2013-12-12,41,34,25,28,22,15,90,66,34,30.46,30.32,2,0,5,0.00
2013-12-13,50,35,23,30,23,19,89,64,32,30.43,30.31,1,0,4,0.00
2013-12-14,46,40,36,41,35,28,96,82,55,30.34,29.81,4,0,6,0.73
2013-12-15,50,41,33,42,35,28,97,83,58,30.09,29.74,4,0,8,0.01
2013-12-16,53,40,29,37,32,27,93,73,45,30.20,30.09,1,0,5,0.00
2013-12-17,62,46,34,40,36,31,92,70,39,30.14,29.89,4,0,6,0.00
2013-12-18,46,37,29,37,24,19,93,64,34,30.32,30.06,2,0,5,0.01
2013-12-19,61,45,29,31,26,21,79,49,26,30.34,30.24,3,0,7,0.00
2013-12-20,65,54,44,53,45,31,84,71,52,30.26,30.12,3,0,8,0.00
2013-12-21,72,61,48,65,56,46,94,84,68,30.16,30.03,4,1,15,0.00
2013-12-22,74,68,62,68,64,60,95,89,78,30.09,30.00,4,1,12,0.34
2013-12-23,65,59,44,63,56,36,96,92,75,30.19,30.00,3,0,5,0.98
2013-12-24,44,38,28,37,28,15,78,65,47,30.49,30.16,3,1,6,0.00
2013-12-25,37,28,21,20,14,11,82,58,36,30.59,30.44,3,0,6,0.00
2013-12-26,50,35,22,28,24,17,88,66,39,30.44,30.29,1,0,4,0.00
2013-12-27,51,35,24,30,24,21,92,68,32,30.51,30.41,2,0,4,0.00
2013-12-28,57,37,26,32,26,24,91,71,32,30.44,30.31,1,0,3,0.00
2013-12-29,53,44,41,50,43,40,97,95,88,30.19,29.74,3,0,4,1.44
2013-12-30,52,44,36,43,39,34,97,84,67,30.17,29.95,2,0,0,0.00
2013-12-31,41,37,32,36,32,24,96,84,57,30.39,30.15,1,0,0,0.02
2014-1-1,50,38,29,31,28,24,90,68,38,30.45,30.18,1,0,5,0.00
2014-1-2,48,41,34,42,37,30,100,85,72,30.18,29.63,2,0,6,0.37